Time;durP1;ratioP1;P1;durP2;ratioP2;P2;SDS_P1;SDS_P2;PMS_P1;PMS_P2;Temp;Humidity;BMP_temperature;BMP_pressure;BME280_temperature;BME280_humidity;BME280_pressure;Samples;Min_cycle;Max_cycle;Signal;HPM_P1;HPM_P2
2023/08/18 00:01:17;;;;;;;6.60;4.70;;;;;;;27.13;38.88;100676.33;104294;1291;69403;-87
2023/08/18 00:03:43;;;;;;;6.40;4.60;;;;;;;27.12;38.88;100676.59;104256;1285;69285;-87
2023/08/18 00:06:08;;;;;;;8.80;5.00;;;;;;;27.12;38.99;100676.13;104194;1291;69715;-86
2023/08/18 00:08:42;;;;;;;6.50;4.60;;;;;;;27.12;38.98;100675.94;104239;1285;69325;-92
2023/08/18 00:11:08;;;;;;;6.30;4.80;;;;;;;27.11;38.97;100674.50;104181;1288;69086;-87
2023/08/18 00:13:34;;;;;;;6.20;4.80;;;;;;;27.11;39.00;100675.48;104450;1291;69508;-87
2023/08/18 00:15:59;;;;;;;7.30;4.90;;;;;;;27.11;39.01;100672.17;104531;1290;68829;-88
2023/08/18 00:18:25;;;;;;;7.00;4.90;;;;;;;27.11;39.05;100676.01;104353;1285;69255;-86
2023/08/18 00:20:50;;;;;;;5.70;4.60;;;;;;;27.11;38.98;100676.15;104332;1285;68485;-87
2023/08/18 00:23:16;;;;;;;8.00;5.10;;;;;;;27.11;38.96;100673.88;104228;1291;69267;-86
2023/08/18 00:25:42;;;;;;;8.10;4.90;;;;;;;27.11;39.06;100675.39;104321;1288;69252;-86
2023/08/18 00:28:07;;;;;;;5.90;5.00;;;;;;;27.10;38.96;100678.61;104280;1288;69294;-86
2023/08/18 00:30:33;;;;;;;7.50;5.20;;;;;;;27.10;39.11;100676.95;104288;1290;69292;-86
2023/08/18 00:32:58;;;;;;;8.00;4.70;;;;;;;27.10;38.98;100675.80;104288;1289;69305;-87
2023/08/18 00:38:04;;;;;;;5.30;4.80;;;;;;;27.09;39.18;100672.58;104352;1285;73635;-86
2023/08/18 00:40:29;;;;;;;6.50;4.70;;;;;;;27.10;39.13;100669.77;104410;1285;69256;-86
2023/08/18 00:42:55;;;;;;;6.60;4.80;;;;;;;27.09;39.07;100671.74;104322;1285;69168;-87
2023/08/18 00:45:21;;;;;;;6.50;4.90;;;;;;;27.10;39.15;100672.57;104337;1285;69244;-86
2023/08/18 00:47:46;;;;;;;5.60;4.50;;;;;;;27.09;39.14;100674.23;104378;1285;69388;-86
2023/08/18 00:50:12;;;;;;;7.10;4.60;;;;;;;27.09;39.23;100671.36;104231;1288;69239;-86
2023/08/18 00:52:38;;;;;;;8.10;4.80;;;;;;;27.09;39.21;100671.93;104326;1288;69235;-86
2023/08/18 00:55:04;;;;;;;8.30;5.00;;;;;;;27.08;39.20;100675.02;104388;1285;69798;-86
2023/08/18 00:57:30;;;;;;;9.50;5.00;;;;;;;27.09;39.11;100676.35;104411;1285;69198;-86
2023/08/18 00:59:56;;;;;;;6.70;5.10;;;;;;;27.09;39.23;100675.94;104380;1285;69196;-87
2023/08/18 01:02:31;;;;;;;6.10;4.80;;;;;;;27.08;39.27;100681.27;104300;1288;69267;-92
2023/08/18 01:05:02;;;;;;;8.10;5.30;;;;;;;27.08;39.29;100685.06;104350;1285;69291;-86
2023/08/18 01:07:28;;;;;;;5.60;4.90;;;;;;;27.08;39.38;100684.48;104399;1290;69294;-86
2023/08/18 01:09:53;;;;;;;9.00;5.30;;;;;;;27.08;39.29;100680.67;104381;1289;69273;-86
2023/08/18 01:12:44;;;;;;;6.30;4.90;;;;;;;27.08;39.27;100680.36;104176;1285;69159;-87
2023/08/18 01:15:16;;;;;;;6.70;4.80;;;;;;;27.07;39.35;100679.19;104276;1285;69206;-86
2023/08/18 01:17:45;;;;;;;7.60;4.70;;;;;;;27.07;39.43;100681.16;104335;1285;69168;-86
2023/08/18 01:20:10;;;;;;;5.50;5.00;;;;;;;27.07;39.38;100684.98;104170;1285;69096;-86
2023/08/18 01:22:36;;;;;;;5.80;5.10;;;;;;;27.07;39.36;100685.28;104323;1288;69328;-86
2023/08/18 01:25:05;;;;;;;6.90;4.80;;;;;;;27.07;39.42;100683.88;104123;1285;69453;-86
2023/08/18 01:27:31;;;;;;;6.60;5.10;;;;;;;27.06;39.33;100685.30;104189;1285;69203;-86
2023/08/18 01:29:56;;;;;;;6.00;5.10;;;;;;;27.07;39.54;100687.77;104232;1287;69244;-87
2023/08/18 01:32:25;;;;;;;6.10;4.90;;;;;;;27.07;39.61;100688.39;104226;1288;70219;-92
2023/08/18 01:34:50;;;;;;;6.60;5.10;;;;;;;27.07;39.55;100689.02;104273;1285;69093;-86
2023/08/18 01:37:16;;;;;;;6.90;5.10;;;;;;;27.06;39.50;100689.13;104453;1288;69214;-86
2023/08/18 01:39:42;;;;;;;5.20;4.30;;;;;;;27.07;39.53;100691.60;104255;1285;69259;-86
2023/08/18 01:42:07;;;;;;;8.50;4.90;;;;;;;27.06;39.66;100687.02;104163;1291;69243;-86
2023/08/18 01:44:33;;;;;;;9.40;4.60;;;;;;;27.06;39.56;100686.75;104484;1285;69365;-87
2023/08/18 01:46:58;;;;;;;5.20;4.70;;;;;;;27.06;39.69;100685.27;104270;1288;69262;-86
2023/08/18 01:49:24;;;;;;;7.20;5.20;;;;;;;27.06;39.56;100685.42;104318;1285;69284;-86
2023/08/18 01:51:49;;;;;;;6.70;5.10;;;;;;;27.05;39.55;100685.91;104319;1288;70415;-86
2023/08/18 01:54:15;;;;;;;5.50;4.60;;;;;;;27.06;39.68;100688.94;104392;1288;69356;-86
2023/08/18 01:56:40;;;;;;;8.10;4.70;;;;;;;27.05;39.54;100689.88;104413;1290;69263;-86
2023/08/18 02:01:49;;;;;;;6.90;4.90;;;;;;;27.05;39.69;100689.16;104411;1285;68969;-86
2023/08/18 02:04:14;;;;;;;6.20;5.10;;;;;;;27.05;39.65;100687.86;104355;1285;69274;-87
2023/08/18 02:06:40;;;;;;;5.20;4.60;;;;;;;27.05;39.58;100685.13;104339;1285;70096;-86
2023/08/18 02:09:05;;;;;;;10.70;5.00;;;;;;;27.04;39.68;100684.41;104429;1289;69297;-86
2023/08/18 02:11:31;;;;;;;7.80;4.90;;;;;;;27.04;39.73;100685.70;104349;1285;69307;-86
2023/08/18 02:13:57;;;;;;;7.40;4.90;;;;;;;27.05;39.68;100687.61;104297;1285;69310;-86
2023/08/18 02:16:22;;;;;;;7.10;4.90;;;;;;;27.04;39.68;100686.65;104280;1285;69271;-86
2023/08/18 02:18:48;;;;;;;7.40;5.00;;;;;;;27.04;39.71;100688.05;104019;1285;336158;-86
2023/08/18 02:21:16;;;;;;;5.50;4.80;;;;;;;27.03;39.72;100682.31;104294;1285;69242;-86
2023/08/18 02:23:42;;;;;;;7.80;4.90;;;;;;;27.04;39.67;100678.34;104337;1285;69273;-86
2023/08/18 02:26:07;;;;;;;7.70;5.10;;;;;;;27.03;39.82;100674.52;104227;1285;69314;-86
2023/08/18 02:28:33;;;;;;;5.80;5.10;;;;;;;27.03;39.80;100675.65;104225;1285;69273;-86
2023/08/18 02:31:04;;;;;;;5.60;4.70;;;;;;;27.03;39.81;100674.48;104304;1285;69316;-86
2023/08/18 02:33:29;;;;;;;6.10;4.90;;;;;;;27.04;39.76;100673.50;104240;1285;69267;-86
2023/08/18 02:35:55;;;;;;;6.00;5.20;;;;;;;27.03;39.95;100672.30;104046;1292;69262;-86
2023/08/18 02:38:20;;;;;;;5.80;4.80;;;;;;;27.02;39.87;100668.05;104346;1285;69277;-86
2023/08/18 02:40:46;;;;;;;7.00;4.70;;;;;;;27.02;39.83;100665.15;104337;1285;69262;-86
2023/08/18 02:43:12;;;;;;;5.40;4.80;;;;;;;27.02;39.89;100668.97;104371;1285;69396;-86
2023/08/18 02:45:38;;;;;;;8.00;5.10;;;;;;;27.02;39.90;100664.84;104343;1286;69201;-86
2023/08/18 02:48:04;;;;;;;7.00;5.20;;;;;;;27.02;39.90;100664.42;104385;1285;69269;-86
2023/08/18 02:50:29;;;;;;;5.80;4.80;;;;;;;27.02;40.04;100669.08;104263;1285;69426;-86
2023/08/18 02:53:03;;;;;;;8.40;4.70;;;;;;;27.02;39.99;100672.90;104320;1285;69261;-92
2023/08/18 02:55:29;;;;;;;6.50;4.80;;;;;;;27.01;40.11;100677.11;104203;1285;69206;-86
2023/08/18 02:57:54;;;;;;;5.40;4.90;;;;;;;27.01;39.96;100680.79;104380;1285;69723;-86
2023/08/18 03:00:20;;;;;;;5.70;5.00;;;;;;;27.00;40.02;100674.06;104358;1285;69204;-86
2023/08/18 03:02:45;;;;;;;12.30;5.20;;;;;;;27.01;39.96;100677.79;104383;1285;69281;-86
2023/08/18 03:05:11;;;;;;;11.60;6.10;;;;;;;27.00;40.04;100677.06;104400;1285;69148;-86
2023/08/18 03:07:36;;;;;;;13.50;6.40;;;;;;;26.99;40.19;100680.75;104286;1290;69312;-86
2023/08/18 03:10:02;;;;;;;10.70;6.20;;;;;;;26.96;40.32;100686.55;104452;1285;69259;-86
2023/08/18 03:12:27;;;;;;;12.30;6.50;;;;;;;26.91;40.27;100687.66;104431;1285;70121;-86
2023/08/18 03:14:56;;;;;;;15.40;6.00;;;;;;;26.85;40.42;100687.11;104403;1285;69207;-86
2023/08/18 03:17:21;;;;;;;12.90;6.10;;;;;;;26.79;40.51;100689.16;104595;1285;69348;-87
2023/08/18 03:22:32;;;;;;;11.70;6.30;;;;;;;26.70;40.66;100694.16;104510;1285;69213;-86
2023/08/18 03:24:57;;;;;;;10.60;6.40;;;;;;;26.68;40.76;100692.27;104720;1290;74364;-86
2023/08/18 03:27:23;;;;;;;20.90;7.40;;;;;;;26.67;40.85;100692.18;104393;1287;69270;-85
2023/08/18 03:29:48;;;;;;;16.40;7.20;;;;;;;26.66;40.96;100693.49;104252;1286;70061;-86
2023/08/18 03:32:14;;;;;;;13.20;6.60;;;;;;;26.66;41.56;100691.14;104391;1287;69330;-87
2023/08/18 03:34:39;;;;;;;17.10;6.80;;;;;;;26.64;41.85;100700.09;104220;1287;69269;-86
2023/08/18 03:37:05;;;;;;;9.60;6.70;;;;;;;26.64;42.23;100700.32;104166;1286;69856;-86
2023/08/18 03:39:30;;;;;;;14.50;6.30;;;;;;;26.62;42.37;100703.35;104089;1288;69269;-86
2023/08/18 03:41:56;;;;;;;11.60;6.70;;;;;;;26.58;42.36;100700.31;104280;1286;69232;-86
2023/08/18 03:44:21;;;;;;;11.50;6.40;;;;;;;26.55;42.30;100702.27;104321;1287;69191;-86
2023/08/18 03:46:56;;;;;;;14.90;6.80;;;;;;;26.54;42.20;100704.52;104224;1287;69271;-93
2023/08/18 03:49:22;;;;;;;12.90;7.00;;;;;;;26.52;42.25;100705.15;104137;1288;69194;-87
2023/08/18 03:51:47;;;;;;;12.10;6.90;;;;;;;26.51;42.06;100707.17;104218;1287;69187;-86
2023/08/18 03:54:13;;;;;;;13.40;6.70;;;;;;;26.50;42.10;100702.59;104157;1288;69119;-86
2023/08/18 03:56:38;;;;;;;15.50;6.30;;;;;;;26.51;41.96;100705.77;104239;1285;69248;-86
2023/08/18 03:59:04;;;;;;;11.90;7.30;;;;;;;26.51;42.14;100704.79;104297;1285;69255;-87
2023/08/18 04:01:29;;;;;;;10.90;6.50;;;;;;;26.51;42.06;100706.91;104194;1288;69208;-86
2023/08/18 04:03:58;;;;;;;10.80;6.40;;;;;;;26.50;42.03;100711.81;104420;1289;69285;-86
2023/08/18 04:06:23;;;;;;;11.30;6.50;;;;;;;26.49;42.04;100718.81;104374;1285;74367;-87
2023/08/18 04:09:04;;;;;;;13.60;7.10;;;;;;;26.49;42.17;100718.46;104343;1285;69248;-86
2023/08/18 04:11:30;;;;;;;13.10;7.10;;;;;;;26.48;42.22;100719.86;104149;1288;69164;-87
2023/08/18 04:13:55;;;;;;;11.00;6.70;;;;;;;26.48;42.20;100717.23;104075;1286;69301;-87
2023/08/18 04:16:21;;;;;;;12.50;6.90;;;;;;;26.47;42.12;100724.27;104254;1287;69249;-87
2023/08/18 04:18:46;;;;;;;14.40;7.10;;;;;;;26.44;42.19;100727.68;104349;1288;69744;-87
2023/08/18 04:21:12;;;;;;;11.30;6.70;;;;;;;26.42;42.03;100731.42;104447;1286;69192;-87
2023/08/18 04:23:37;;;;;;;13.30;6.80;;;;;;;26.41;42.40;100731.44;104377;1286;69752;-86
2023/08/18 04:26:03;;;;;;;10.80;6.60;;;;;;;26.40;42.34;100731.04;104414;1290;69263;-86
2023/08/18 04:28:29;;;;;;;14.50;6.10;;;;;;;26.40;42.29;100731.77;104285;1287;69265;-87
2023/08/18 04:30:55;;;;;;;8.70;6.10;;;;;;;26.40;42.31;100732.70;104466;1288;69190;-86
2023/08/18 04:33:20;;;;;;;9.20;5.70;;;;;;;26.39;42.37;100734.52;104508;1288;69259;-86
2023/08/18 04:35:46;;;;;;;10.10;5.80;;;;;;;26.39;42.19;100734.06;105548;1284;69184;-87
2023/08/18 04:38:13;;;;;;;10.20;6.10;;;;;;;26.40;42.29;100735.39;104507;1289;70775;-86
2023/08/18 04:40:43;;;;;;;12.00;5.40;;;;;;;26.40;42.06;100736.42;104325;1284;69298;-92
2023/08/18 04:43:09;;;;;;;13.30;5.20;;;;;;;26.40;41.91;100735.48;104201;1290;70300;-86
2023/08/18 04:45:35;;;;;;;10.10;5.40;;;;;;;26.41;41.83;100736.71;104295;1284;69259;-86
2023/08/18 04:48:00;;;;;;;11.50;5.50;;;;;;;26.42;41.65;100740.41;104193;1288;69395;-87
2023/08/18 04:50:26;;;;;;;7.70;5.50;;;;;;;26.42;41.36;100737.31;104252;1288;69336;-86
2023/08/18 04:52:51;;;;;;;12.70;5.40;;;;;;;26.40;41.38;100736.84;104230;1288;69251;-87
2023/08/18 04:55:17;;;;;;;13.10;5.50;;;;;;;26.39;41.50;100735.80;104270;1285;69275;-86
2023/08/18 04:57:42;;;;;;;9.40;5.40;;;;;;;26.40;41.44;100728.85;104321;1287;69319;-86
2023/08/18 05:00:09;;;;;;;10.00;5.30;;;;;;;26.39;41.38;100728.08;104466;1285;69260;-86
2023/08/18 05:02:34;;;;;;;8.20;5.40;;;;;;;26.38;41.57;100732.86;104344;1288;69106;-86
2023/08/18 05:05:00;;;;;;;11.30;5.70;;;;;;;26.40;41.44;100737.41;104325;1288;69283;-86
2023/08/18 05:07:38;;;;;;;10.10;5.30;;;;;;;26.40;41.39;100732.60;104218;1289;69204;-91
2023/08/18 05:10:04;;;;;;;8.90;5.50;;;;;;;26.40;41.42;100730.48;104188;1285;74997;-86
2023/08/18 05:12:30;;;;;;;9.00;5.50;;;;;;;26.41;41.51;100731.41;104309;1285;69313;-86
2023/08/18 05:14:55;;;;;;;9.00;5.20;;;;;;;26.41;41.74;100733.45;104231;1289;69203;-86
2023/08/18 05:17:21;;;;;;;6.90;5.60;;;;;;;26.42;41.72;100731.84;104272;1285;69254;-88
2023/08/18 05:19:46;;;;;;;9.40;5.70;;;;;;;26.44;41.47;100735.38;104925;1278;69199;-89
2023/08/18 05:22:12;;;;;;;11.20;5.70;;;;;;;26.44;41.43;100735.47;104715;1285;70699;-89
2023/08/18 05:24:38;;;;;;;8.40;6.20;;;;;;;26.45;41.64;100734.53;104961;1283;69137;-89
2023/08/18 05:27:05;;;;;;;8.00;5.90;;;;;;;26.46;41.64;100736.17;104965;1284;69210;-89
2023/08/18 05:29:31;;;;;;;8.50;5.90;;;;;;;26.46;41.72;100732.91;105219;1285;69154;-89
2023/08/18 05:31:57;;;;;;;9.90;6.30;;;;;;;26.47;41.66;100733.05;105405;1285;69367;-89
2023/08/18 05:37:02;;;;;;;13.60;5.90;;;;;;;26.47;41.68;100737.13;104236;1289;68969;-88
2023/08/18 05:39:27;;;;;;;10.20;5.80;;;;;;;26.48;41.88;100738.81;104113;1290;69268;-87
2023/08/18 05:41:53;;;;;;;10.20;6.00;;;;;;;26.49;41.86;100743.77;103992;1290;69296;-87
2023/08/18 05:44:19;;;;;;;8.50;6.30;;;;;;;26.50;41.74;100741.70;103949;1289;69201;-86
2023/08/18 05:46:44;;;;;;;11.40;6.10;;;;;;;26.49;41.94;100742.71;104095;1289;69313;-86
2023/08/18 05:49:10;;;;;;;19.30;6.10;;;;;;;26.50;41.81;100742.13;104038;1289;69285;-85
2023/08/18 05:51:35;;;;;;;11.30;6.00;;;;;;;26.51;42.04;100738.98;104013;1289;69221;-86
2023/08/18 05:54:03;;;;;;;7.90;6.30;;;;;;;26.52;41.91;100738.55;103901;1289;69321;-86
2023/08/18 05:56:29;;;;;;;8.10;5.90;;;;;;;26.54;41.97;100737.64;103829;1293;69229;-85
2023/08/18 05:58:54;;;;;;;6.60;5.80;;;;;;;26.56;41.93;100742.52;103819;1289;69226;-85
2023/08/18 06:01:28;;;;;;;10.50;6.00;;;;;;;26.57;41.93;100743.06;103906;1289;69210;-92
2023/08/18 06:03:53;;;;;;;9.60;6.20;;;;;;;26.58;41.91;100747.39;103858;1289;67300;-86
2023/08/18 06:06:19;;;;;;;10.70;6.50;;;;;;;26.59;42.10;100745.48;104148;1290;69196;-86
2023/08/18 06:08:44;;;;;;;11.40;6.60;;;;;;;26.60;41.98;100749.91;104224;1289;69259;-86
2023/08/18 06:11:10;;;;;;;13.10;6.30;;;;;;;26.61;41.92;100748.10;103895;1289;69217;-86
2023/08/18 06:13:35;;;;;;;10.40;6.20;;;;;;;26.62;42.06;100749.33;104022;1294;69350;-86
2023/08/18 06:16:04;;;;;;;9.70;6.30;;;;;;;26.63;42.09;100753.13;104041;1289;69210;-86
2023/08/18 06:18:30;;;;;;;7.80;6.40;;;;;;;26.63;42.06;100751.84;103793;1292;69150;-85
2023/08/18 06:20:56;;;;;;;8.10;6.50;;;;;;;26.63;42.05;100751.47;103827;1289;69294;-85
2023/08/18 06:23:21;;;;;;;9.40;6.40;;;;;;;26.64;41.83;100755.00;103960;1289;69201;-86
2023/08/18 06:25:47;;;;;;;12.80;6.10;;;;;;;26.65;42.01;100753.40;104055;1289;69275;-86
2023/08/18 06:28:21;;;;;;;11.00;6.70;;;;;;;26.66;41.95;100751.11;104010;1289;69292;-92
2023/08/18 06:30:46;;;;;;;12.10;6.40;;;;;;;26.67;41.86;100755.92;103820;1289;69268;-86
2023/08/18 06:33:12;;;;;;;9.30;6.10;;;;;;;26.69;41.72;100754.81;103824;1292;69364;-86
2023/08/18 06:35:37;;;;;;;9.60;6.20;;;;;;;26.70;41.71;100755.81;103844;1289;69179;-85
2023/08/18 06:38:03;;;;;;;8.50;6.90;;;;;;;26.72;41.69;100755.27;103927;1293;69409;-86
2023/08/18 06:40:29;;;;;;;10.70;5.90;;;;;;;26.74;41.48;100756.27;104032;1291;69285;-86
2023/08/18 06:42:54;;;;;;;11.60;6.30;;;;;;;26.75;41.53;100756.39;104063;1289;69246;-85
2023/08/18 06:45:20;;;;;;;8.00;6.20;;;;;;;26.76;41.48;100751.98;104078;1290;69361;-86
2023/08/18 06:47:45;;;;;;;8.60;6.30;;;;;;;26.77;41.55;100752.11;104034;1290;69147;-86
2023/08/18 06:50:11;;;;;;;12.00;6.70;;;;;;;26.78;41.46;100748.13;103953;1289;69655;-85
2023/08/18 06:52:36;;;;;;;9.90;6.30;;;;;;;26.80;41.35;100748.42;103929;1291;69191;-86
2023/08/18 06:57:38;;;;;;;11.20;6.60;;;;;;;26.82;41.40;100746.80;104306;1290;72992;-86
2023/08/18 07:00:06;;;;;;;7.70;6.90;;;;;;;26.83;41.34;100748.56;104270;1290;69388;-85
2023/08/18 07:02:31;;;;;;;9.30;6.50;;;;;;;26.85;41.39;100747.67;104854;1287;67753;-86
2023/08/18 07:04:57;;;;;;;9.30;7.00;;;;;;;26.87;41.38;100749.32;104580;1285;69300;-86
2023/08/18 07:07:22;;;;;;;13.40;6.70;;;;;;;26.88;41.44;100750.73;104456;1285;69218;-85
2023/08/18 07:09:49;;;;;;;11.70;6.50;;;;;;;26.90;41.34;100759.48;104188;1288;69199;-85
2023/08/18 07:12:16;;;;;;;12.00;6.10;;;;;;;26.92;41.43;100756.09;104367;1286;69288;-86
2023/08/18 07:14:42;;;;;;;10.70;6.50;;;;;;;26.93;41.41;100754.36;104230;1288;69609;-86
2023/08/18 07:17:07;;;;;;;9.80;6.60;;;;;;;26.95;41.22;100757.42;104475;1285;68173;-86
2023/08/18 07:19:33;;;;;;;9.30;6.50;;;;;;;26.97;41.27;100758.35;104418;1285;74505;-86
2023/08/18 07:24:39;;;;;;;;;;;;;;;27.01;41.33;100752.80;104178;1292;69184;-86
2023/08/18 07:27:04;;;;;;;8.80;6.40;;;;;;;27.00;41.25;100753.84;104210;1291;69280;-85
2023/08/18 07:29:30;;;;;;;12.10;6.80;;;;;;;27.04;41.18;100748.10;104235;1287;69281;-86
2023/08/18 07:31:56;;;;;;;11.80;6.30;;;;;;;27.05;41.23;100746.69;103996;1288;69227;-86
2023/08/18 07:34:21;;;;;;;10.90;6.90;;;;;;;27.06;41.18;100744.39;104071;1287;69250;-86
2023/08/18 07:36:47;;;;;;;10.50;6.50;;;;;;;27.08;41.28;100746.14;104224;1291;69568;-85
2023/08/18 07:39:12;;;;;;;9.30;6.40;;;;;;;27.09;41.25;100749.27;104195;1293;69270;-86
2023/08/18 07:41:40;;;;;;;9.80;6.20;;;;;;;27.12;41.24;100757.17;104208;1290;69587;-86
2023/08/18 07:44:07;;;;;;;12.60;6.70;;;;;;;27.13;41.14;100753.73;104196;1288;69241;-86
2023/08/18 07:46:33;;;;;;;9.00;6.40;;;;;;;27.14;41.28;100750.00;104090;1288;69209;-88
2023/08/18 07:49:03;;;;;;;11.80;6.60;;;;;;;27.15;41.31;100747.91;104257;1288;69132;-93
2023/08/18 07:51:29;;;;;;;8.60;6.10;;;;;;;27.17;41.28;100754.90;103880;1294;69152;-87
2023/08/18 07:53:54;;;;;;;13.00;6.80;;;;;;;27.19;41.20;100751.70;104159;1288;69299;-87
2023/08/18 07:56:20;;;;;;;11.10;6.30;;;;;;;27.21;41.15;100753.05;104282;1287;68061;-88
2023/08/18 07:58:45;;;;;;;10.70;5.90;;;;;;;27.23;41.19;100753.00;104472;1287;69317;-87
2023/08/18 08:01:11;;;;;;;11.10;6.70;;;;;;;27.26;41.22;100753.10;104343;1287;69303;-88
2023/08/18 08:03:36;;;;;;;10.30;6.40;;;;;;;27.28;41.14;100751.09;104072;1287;80197;-87
2023/08/18 08:06:04;;;;;;;12.60;6.30;;;;;;;27.30;41.09;100751.77;105393;1287;69275;-87
2023/08/18 08:08:30;;;;;;;11.40;5.70;;;;;;;27.32;41.07;100749.15;103964;1289;69231;-87
2023/08/18 08:10:57;;;;;;;10.40;6.00;;;;;;;27.34;41.12;100750.65;105304;1288;69192;-88
2023/08/18 08:13:23;;;;;;;13.00;5.80;;;;;;;27.37;40.98;100748.21;104296;1288;69233;-87
2023/08/18 08:18:28;;;;;;;10.00;6.20;;;;;;;27.44;40.78;100747.13;104220;1287;69084;-86
2023/08/18 08:20:54;;;;;;;8.20;5.50;;;;;;;27.47;40.68;100747.59;104154;1291;69264;-86
2023/08/18 08:23:19;;;;;;;11.70;5.90;;;;;;;27.49;40.63;100747.55;104196;1294;69307;-86
2023/08/18 08:25:47;;;;;;;6.60;5.90;;;;;;;27.51;40.53;100746.38;104206;1288;69389;-86
2023/08/18 08:28:13;;;;;;;9.60;5.80;;;;;;;27.52;40.50;100747.27;104333;1291;69221;-86
2023/08/18 08:30:44;;;;;;;9.30;6.00;;;;;;;27.53;40.46;100746.53;104257;1290;69386;-86
2023/08/18 08:33:21;;;;;;;9.40;6.30;;;;;;;27.54;40.44;100748.74;104217;1287;69109;-86
2023/08/18 08:35:47;;;;;;;8.90;5.80;;;;;;;27.54;40.44;100744.13;104052;1290;70723;-86
2023/08/18 08:38:12;;;;;;;9.50;5.70;;;;;;;27.56;40.39;100746.27;104231;1290;69264;-86
2023/08/18 08:40:38;;;;;;;8.80;5.90;;;;;;;27.57;40.34;100750.52;104369;1288;69259;-86
2023/08/18 08:43:04;;;;;;;8.80;6.00;;;;;;;27.57;40.25;100747.52;104336;1290;69364;-86
2023/08/18 08:45:29;;;;;;;16.80;6.30;;;;;;;27.57;40.29;100745.51;104223;1288;69484;-86
2023/08/18 08:47:56;;;;;;;17.90;6.60;;;;;;;27.58;40.29;100747.86;104394;1288;69084;-86
2023/08/18 08:50:22;;;;;;;15.90;6.60;;;;;;;27.58;40.27;100746.77;104290;1289;73455;-86
2023/08/18 08:52:49;;;;;;;9.70;6.10;;;;;;;27.60;40.09;100753.96;104179;1288;68261;-86
2023/08/18 08:55:14;;;;;;;9.20;6.00;;;;;;;27.62;40.15;100751.35;105064;1288;69260;-87
2023/08/18 08:57:48;;;;;;;13.10;5.90;;;;;;;27.63;40.12;100753.45;104888;1289;69265;-91
2023/08/18 09:00:14;;;;;;;8.60;5.50;;;;;;;27.66;39.98;100755.80;105817;1286;69090;-87
2023/08/18 09:02:39;;;;;;;9.60;5.90;;;;;;;27.69;39.87;100756.73;105040;1290;69259;-87
2023/08/18 09:05:06;;;;;;;11.80;5.80;;;;;;;27.71;39.83;100749.23;104754;1287;69729;-86
2023/08/18 09:07:32;;;;;;;10.90;6.20;;;;;;;27.72;39.71;100744.10;104634;1288;67545;-87
2023/08/18 09:09:58;;;;;;;8.40;5.90;;;;;;;27.74;39.55;100747.88;106213;1288;67664;-87
2023/08/18 09:12:29;;;;;;;6.80;5.70;;;;;;;27.75;39.56;100751.22;104104;1288;69266;-86
2023/08/18 09:14:55;;;;;;;9.50;6.10;;;;;;;27.76;39.48;100757.30;104510;1286;73627;-87
2023/08/18 09:17:22;;;;;;;9.50;5.80;;;;;;;27.78;39.51;100759.17;104546;1286;69268;-87
2023/08/18 09:19:50;;;;;;;10.10;5.60;;;;;;;27.82;39.42;100756.23;104718;1286;68333;-86
2023/08/18 09:22:22;;;;;;;8.30;5.60;;;;;;;27.84;39.23;100751.95;105011;1288;69288;-87
2023/08/18 09:24:50;;;;;;;8.90;5.70;;;;;;;27.86;39.14;100749.42;104794;1288;67935;-87
2023/08/18 09:27:15;;;;;;;8.60;5.70;;;;;;;27.88;39.18;100753.25;104552;1288;72400;-86
2023/08/18 09:29:41;;;;;;;10.60;5.30;;;;;;;27.93;39.00;100759.69;104595;1292;69194;-86
2023/08/18 09:32:07;;;;;;;7.30;5.30;;;;;;;27.95;39.01;100755.15;104748;1287;69604;-87
2023/08/18 09:34:37;;;;;;;9.60;5.30;;;;;;;27.94;38.94;100759.80;104312;1285;69263;-87
2023/08/18 09:37:03;;;;;;;7.30;5.60;;;;;;;27.97;38.79;100760.59;104403;1289;69132;-86
2023/08/18 09:42:08;;;;;;;8.00;6.00;;;;;;;27.95;38.85;100755.55;104393;1289;69270;-86
2023/08/18 09:44:33;;;;;;;11.00;6.20;;;;;;;27.94;38.75;100753.58;104488;1286;69269;-86
2023/08/18 09:46:59;;;;;;;13.50;6.40;;;;;;;27.91;38.99;100756.48;104131;1292;69279;-86
2023/08/18 09:49:25;;;;;;;8.80;6.20;;;;;;;27.92;38.72;100753.20;104392;1286;70090;-86
2023/08/18 09:51:53;;;;;;;7.80;5.70;;;;;;;27.93;38.82;100746.98;104426;1288;69145;-86
2023/08/18 09:54:19;;;;;;;11.10;6.00;;;;;;;27.94;38.72;100746.42;103840;1286;69311;-86
2023/08/18 09:56:49;;;;;;;9.40;5.90;;;;;;;27.94;38.81;100747.06;104424;1286;69194;-87
2023/08/18 09:59:20;;;;;;;9.40;6.00;;;;;;;27.93;38.87;100746.45;104439;1286;70527;-86
2023/08/18 10:01:47;;;;;;;10.70;6.40;;;;;;;27.92;38.87;100741.52;104161;1287;67338;-86
2023/08/18 10:04:13;;;;;;;9.00;6.20;;;;;;;27.91;38.96;100738.55;104223;1287;73653;-87
2023/08/18 10:06:39;;;;;;;9.20;5.90;;;;;;;27.90;39.05;100737.48;104383;1290;69356;-87
2023/08/18 10:09:05;;;;;;;6.90;6.20;;;;;;;27.90;38.95;100734.22;103990;1287;69300;-87
2023/08/18 10:11:30;;;;;;;9.10;5.80;;;;;;;27.91;38.97;100731.51;104349;1287;69311;-86
2023/08/18 10:13:56;;;;;;;8.80;6.50;;;;;;;27.94;38.88;100732.77;104544;1286;69146;-87
2023/08/18 10:16:21;;;;;;;9.40;6.20;;;;;;;27.95;38.85;100735.08;104376;1288;69079;-86
2023/08/18 10:18:56;;;;;;;9.40;6.00;;;;;;;27.94;38.92;100737.12;104085;1286;69408;-86
2023/08/18 10:21:30;;;;;;;8.00;6.40;;;;;;;27.94;38.97;100730.59;104069;1286;69139;-91
2023/08/18 10:23:56;;;;;;;11.00;6.40;;;;;;;27.95;38.97;100731.27;104184;1287;69200;-86
2023/08/18 10:26:27;;;;;;;8.00;5.90;;;;;;;27.95;38.83;100729.33;104541;1286;69206;-86
2023/08/18 10:28:53;;;;;;;9.70;6.20;;;;;;;27.97;38.99;100730.73;104364;1288;69121;-86
2023/08/18 10:31:19;;;;;;;11.20;5.90;;;;;;;27.99;38.83;100733.01;104049;1286;69303;-87
2023/08/18 10:33:49;;;;;;;7.40;6.00;;;;;;;28.02;38.80;100733.11;104127;1293;69244;-86
2023/08/18 10:36:29;;;;;;;9.10;5.90;;;;;;;28.02;38.69;100740.39;104424;1287;69147;-91
2023/08/18 10:38:54;;;;;;;;;;;;;;;28.01;38.75;100735.17;103993;1286;73653;-87
2023/08/18 10:41:24;;;;;;;8.60;6.00;;;;;;;27.98;38.71;100727.45;104437;1290;67000;-86
2023/08/18 10:43:55;;;;;;;6.60;5.80;;;;;;;27.97;38.64;100728.89;104481;1286;69653;-87
2023/08/18 10:46:24;;;;;;;8.20;6.80;;;;;;;27.95;38.71;100728.34;104224;1286;69158;-87
2023/08/18 10:48:50;;;;;;;7.00;6.30;;;;;;;27.96;38.67;100728.27;104252;1288;69066;-87
2023/08/18 10:51:24;;;;;;;6.70;5.90;;;;;;;27.96;38.42;100731.58;104264;1289;69195;-92
2023/08/18 10:53:49;;;;;;;8.40;6.50;;;;;;;27.97;38.29;100733.59;104275;1290;69016;-86
2023/08/18 10:56:15;;;;;;;8.40;6.30;;;;;;;27.98;38.24;100731.40;104349;1288;69134;-86
2023/08/18 10:58:40;;;;;;;14.00;6.70;;;;;;;27.98;38.13;100727.20;104322;1288;69348;-87
2023/08/18 11:01:08;;;;;;;6.90;6.10;;;;;;;27.98;38.18;100723.06;104224;1288;69168;-87
2023/08/18 11:03:33;;;;;;;8.30;6.00;;;;;;;27.99;38.12;100716.73;104274;1286;69594;-87
2023/08/18 11:05:59;;;;;;;10.20;6.90;;;;;;;28.00;37.95;100716.90;104226;1286;69328;-86
2023/08/18 11:08:25;;;;;;;8.70;6.40;;;;;;;28.03;37.73;100717.60;104508;1288;66976;-86
2023/08/18 11:10:50;;;;;;;8.30;6.40;;;;;;;28.05;37.64;100715.67;104078;1286;69150;-87
2023/08/18 11:13:24;;;;;;;9.00;6.30;;;;;;;28.06;37.75;100719.28;104126;1288;67560;-87
2023/08/18 11:15:50;;;;;;;8.70;6.40;;;;;;;28.05;37.64;100718.22;104112;1286;69230;-87
2023/08/18 11:18:16;;;;;;;10.10;6.00;;;;;;;28.04;37.79;100709.91;104282;1290;70436;-87
2023/08/18 11:20:42;;;;;;;8.00;6.50;;;;;;;28.05;37.75;100709.38;104127;1290;69242;-87
2023/08/18 11:23:08;;;;;;;9.50;6.10;;;;;;;28.03;37.72;100705.23;104218;1288;69213;-86
2023/08/18 11:25:34;;;;;;;10.20;6.40;;;;;;;28.02;37.74;100690.31;103908;1288;69091;-87
2023/08/18 11:27:59;;;;;;;9.00;6.40;;;;;;;28.01;37.64;100685.88;104261;1287;69218;-87
2023/08/18 11:30:25;;;;;;;10.80;6.90;;;;;;;28.01;37.60;100688.95;104069;1288;69249;-87
2023/08/18 11:32:53;;;;;;;8.60;6.10;;;;;;;28.01;37.66;100689.70;104141;1288;69159;-86